Williston, ND

3:40 AM CDT on March 25, 2017 (GMT -0500)
Johnson's weather | | Change Station

Elev 1916 ft 48.16 °N, 103.64 °W | Updated 3 seconds ago

Clear
Clear
41.3 °F
Feels Like 41 °F
N
2.0
Wind Variable Wind from South
Gusts 2.0 mph

Today
High -- | Low -- °F
--% Chance of Precip.
Yesterday
High -- | Low -- °F
Precip. -- in
Pressure 29.92 in
Visibility 10.0 miles
Clouds Clear
Windchill 41 °F
Dew Point 33 °F
Humidity 73%
Rainfall in
Snow Depth Not available.
7:46 AM 8:15 PM
Waning Crescent, 9% visible
METAR KISN 250752Z AUTO 16010G18KT 10SM CLR 06/00 A2989 RMK AO2 SLP132 T00610000
Pressure 29.92 in
Visibility 10.0 miles
Clouds Clear
Windchill 41 °F
Dew Point 33 °F
Humidity 73%
Rainfall in
Snow Depth Not available.
7:46 AM 8:15 PM
Waning Crescent, 9% visible
METAR KISN 250752Z AUTO 16010G18KT 10SM CLR 06/00 A2989 RMK AO2 SLP132 T00610000

Get Severe Weather Alerts

Thanks for signing up!

Be on the lookout for a verification email in your inbox.

You'll start receiving the daily forecast at 8 AM.

×

10-Day Weather Forecast

Almanac

Astronomy

Mar. 25, 2017 Rise Set
Actual Time
Civil Twilight
Nautical Twilight
Astronomical Twilight
Moon
Length of Visible Light
Length of Day
Tomorrow will be .
, % of the Moon is Illuminated

Today's Extremes

State Highs State Lows

Community

WunderPhotos

Upload Photos

1,962,540 photos uploaded!

WunderBlog® & News

Nearby

Air Quality

  Air Quality AQ Index Pollutant
Not available.

Snow Depth

Station Depth Elevation

Earthquake Activity

City Distance Mag. Time & Date
Minimum magnitude displayed is 2.5.

Earthquake Activity

City Distance Mag. Time & Date
Minimum magnitude displayed is 2.5.

Coastal Water Temperatures

Place Temperature

Stations

Nearby Weather Stations

Station Location Temp. Windchill Dew Point Humidity Wind Precip. Elev Updated Type
                   

Watches & Warnings

There are currently no watches in effect.